sensor_id;sensor_type;location;lat;lon;timestamp;P1;durP1;ratioP1;P2;durP2;ratioP2
7719;SDS011;3902;49.474;8.616;2023-01-29T00:02:05;6.50;;;5.90;;
7719;SDS011;3902;49.474;8.616;2023-01-29T00:04:31;6.83;;;6.13;;
7719;SDS011;3902;49.474;8.616;2023-01-29T00:06:56;6.00;;;5.50;;
7719;SDS011;3902;49.474;8.616;2023-01-29T00:09:23;6.20;;;5.70;;
7719;SDS011;3902;49.474;8.616;2023-01-29T00:11:48;6.50;;;5.90;;
7719;SDS011;3902;49.474;8.616;2023-01-29T00:14:14;6.50;;;5.93;;
7719;SDS011;3902;49.474;8.616;2023-01-29T00:16:39;6.47;;;5.87;;
7719;SDS011;3902;49.474;8.616;2023-01-29T00:19:05;7.00;;;6.30;;
7719;SDS011;3902;49.474;8.616;2023-01-29T00:21:31;7.00;;;6.33;;
7719;SDS011;3902;49.474;8.616;2023-01-29T00:23:57;7.17;;;6.57;;
7719;SDS011;3902;49.474;8.616;2023-01-29T00:26:23;7.10;;;6.43;;
7719;SDS011;3902;49.474;8.616;2023-01-29T00:28:49;7.33;;;6.63;;
7719;SDS011;3902;49.474;8.616;2023-01-29T00:31:16;6.40;;;5.90;;
7719;SDS011;3902;49.474;8.616;2023-01-29T00:33:44;7.17;;;6.57;;
7719;SDS011;3902;49.474;8.616;2023-01-29T00:36:10;6.83;;;6.23;;
7719;SDS011;3902;49.474;8.616;2023-01-29T00:38:37;7.20;;;6.50;;
7719;SDS011;3902;49.474;8.616;2023-01-29T00:43:51;8.50;;;7.20;;
7719;SDS011;3902;49.474;8.616;2023-01-29T00:46:35;7.37;;;6.20;;
7719;SDS011;3902;49.474;8.616;2023-01-29T00:49:01;9.40;;;6.40;;
7719;SDS011;3902;49.474;8.616;2023-01-29T00:51:26;6.77;;;6.07;;
7719;SDS011;3902;49.474;8.616;2023-01-29T00:53:52;6.70;;;6.10;;
7719;SDS011;3902;49.474;8.616;2023-01-29T00:56:22;7.47;;;6.77;;
7719;SDS011;3902;49.474;8.616;2023-01-29T00:58:50;7.17;;;6.57;;
7719;SDS011;3902;49.474;8.616;2023-01-29T01:01:17;6.53;;;5.93;;
7719;SDS011;3902;49.474;8.616;2023-01-29T01:04:03;7.37;;;6.67;;
7719;SDS011;3902;49.474;8.616;2023-01-29T01:06:28;8.17;;;6.60;;
7719;SDS011;3902;49.474;8.616;2023-01-29T01:08:54;8.70;;;7.90;;
7719;SDS011;3902;49.474;8.616;2023-01-29T01:11:38;7.90;;;7.10;;
7719;SDS011;3902;49.474;8.616;2023-01-29T01:14:04;7.80;;;7.00;;
7719;SDS011;3902;49.474;8.616;2023-01-29T01:16:29;11.40;;;7.53;;
7719;SDS011;3902;49.474;8.616;2023-01-29T01:18:55;7.57;;;6.87;;
7719;SDS011;3902;49.474;8.616;2023-01-29T01:21:20;7.30;;;6.60;;
7719;SDS011;3902;49.474;8.616;2023-01-29T01:23:46;7.43;;;6.60;;
7719;SDS011;3902;49.474;8.616;2023-01-29T01:26:11;7.27;;;6.40;;
7719;SDS011;3902;49.474;8.616;2023-01-29T01:28:37;7.60;;;6.90;;
7719;SDS011;3902;49.474;8.616;2023-01-29T01:31:07;6.93;;;6.33;;
7719;SDS011;3902;49.474;8.616;2023-01-29T01:33:34;6.00;;;5.50;;
7719;SDS011;3902;49.474;8.616;2023-01-29T01:36:01;6.80;;;6.20;;
7719;SDS011;3902;49.474;8.616;2023-01-29T01:38:26;7.33;;;6.63;;
7719;SDS011;3902;49.474;8.616;2023-01-29T01:40:52;6.53;;;5.80;;
7719;SDS011;3902;49.474;8.616;2023-01-29T01:43:18;6.00;;;5.43;;
7719;SDS011;3902;49.474;8.616;2023-01-29T01:45:43;6.07;;;5.47;;
7719;SDS011;3902;49.474;8.616;2023-01-29T01:48:14;6.60;;;6.00;;
7719;SDS011;3902;49.474;8.616;2023-01-29T01:50:48;6.57;;;5.97;;
7719;SDS011;3902;49.474;8.616;2023-01-29T01:53:25;7.50;;;6.90;;
7719;SDS011;3902;49.474;8.616;2023-01-29T01:56:10;6.67;;;6.10;;
7719;SDS011;3902;49.474;8.616;2023-01-29T01:58:42;6.80;;;6.20;;
7719;SDS011;3902;49.474;8.616;2023-01-29T02:01:11;7.20;;;6.60;;
7719;SDS011;3902;49.474;8.616;2023-01-29T02:03:42;7.30;;;6.50;;
7719;SDS011;3902;49.474;8.616;2023-01-29T02:06:34;7.30;;;6.60;;
7719;SDS011;3902;49.474;8.616;2023-01-29T02:09:22;8.17;;;7.37;;
7719;SDS011;3902;49.474;8.616;2023-01-29T02:12:06;9.00;;;8.10;;
7719;SDS011;3902;49.474;8.616;2023-01-29T02:14:35;7.70;;;7.03;;
7719;SDS011;3902;49.474;8.616;2023-01-29T02:17:04;7.70;;;7.00;;
7719;SDS011;3902;49.474;8.616;2023-01-29T02:25:25;8.27;;;7.53;;
7719;SDS011;3902;49.474;8.616;2023-01-29T02:28:12;8.23;;;7.43;;
7719;SDS011;3902;49.474;8.616;2023-01-29T02:30:49;8.60;;;7.30;;
7719;SDS011;3902;49.474;8.616;2023-01-29T02:36:11;7.70;;;7.10;;
7719;SDS011;3902;49.474;8.616;2023-01-29T02:38:44;7.30;;;6.63;;
7719;SDS011;3902;49.474;8.616;2023-01-29T02:41:27;7.33;;;6.73;;
7719;SDS011;3902;49.474;8.616;2023-01-29T02:44:04;7.00;;;6.23;;
7719;SDS011;3902;49.474;8.616;2023-01-29T02:52:29;7.17;;;6.47;;
7719;SDS011;3902;49.474;8.616;2023-01-29T02:55:08;6.83;;;6.23;;
7719;SDS011;3902;49.474;8.616;2023-01-29T02:57:38;7.20;;;6.60;;
7719;SDS011;3902;49.474;8.616;2023-01-29T03:00:09;6.77;;;6.27;;
7719;SDS011;3902;49.474;8.616;2023-01-29T03:02:53;6.40;;;5.90;;
7719;SDS011;3902;49.474;8.616;2023-01-29T03:05:27;6.70;;;6.10;;
7719;SDS011;3902;49.474;8.616;2023-01-29T03:08:03;5.80;;;5.30;;
7719;SDS011;3902;49.474;8.616;2023-01-29T03:10:37;6.60;;;6.00;;
7719;SDS011;3902;49.474;8.616;2023-01-29T03:13:15;6.60;;;6.10;;
7719;SDS011;3902;49.474;8.616;2023-01-29T03:16:06;6.80;;;6.30;;
7719;SDS011;3902;49.474;8.616;2023-01-29T03:18:44;6.53;;;6.03;;
7719;SDS011;3902;49.474;8.616;2023-01-29T03:21:17;7.17;;;6.47;;
7719;SDS011;3902;49.474;8.616;2023-01-29T03:24:07;6.23;;;5.70;;
7719;SDS011;3902;49.474;8.616;2023-01-29T03:26:54;7.30;;;6.70;;
7719;SDS011;3902;49.474;8.616;2023-01-29T03:29:41;6.43;;;5.90;;
7719;SDS011;3902;49.474;8.616;2023-01-29T03:32:27;7.30;;;6.70;;
7719;SDS011;3902;49.474;8.616;2023-01-29T03:34:56;7.00;;;6.40;;
7719;SDS011;3902;49.474;8.616;2023-01-29T03:37:26;7.87;;;7.07;;
7719;SDS011;3902;49.474;8.616;2023-01-29T03:39:59;6.80;;;6.20;;
7719;SDS011;3902;49.474;8.616;2023-01-29T03:42:27;6.83;;;6.23;;
7719;SDS011;3902;49.474;8.616;2023-01-29T03:45:17;6.63;;;6.03;;
7719;SDS011;3902;49.474;8.616;2023-01-29T03:47:57;6.50;;;5.80;;
7719;SDS011;3902;49.474;8.616;2023-01-29T03:53:16;6.00;;;5.50;;
7719;SDS011;3902;49.474;8.616;2023-01-29T04:00:54;6.60;;;6.00;;
7719;SDS011;3902;49.474;8.616;2023-01-29T04:03:36;6.03;;;5.53;;
7719;SDS011;3902;49.474;8.616;2023-01-29T04:06:07;5.90;;;5.30;;
7719;SDS011;3902;49.474;8.616;2023-01-29T04:08:57;6.40;;;5.80;;
7719;SDS011;3902;49.474;8.616;2023-01-29T04:11:33;6.00;;;5.50;;
7719;SDS011;3902;49.474;8.616;2023-01-29T04:14:02;6.30;;;5.80;;
7719;SDS011;3902;49.474;8.616;2023-01-29T04:16:30;6.43;;;5.90;;
7719;SDS011;3902;49.474;8.616;2023-01-29T04:18:59;7.00;;;6.37;;
7719;SDS011;3902;49.474;8.616;2023-01-29T04:21:25;7.30;;;6.00;;
7719;SDS011;3902;49.474;8.616;2023-01-29T04:23:51;6.83;;;6.23;;
7719;SDS011;3902;49.474;8.616;2023-01-29T04:31:13;6.67;;;6.10;;
7719;SDS011;3902;49.474;8.616;2023-01-29T04:33:51;6.50;;;5.90;;
7719;SDS011;3902;49.474;8.616;2023-01-29T04:47:36;8.30;;;7.60;;
7719;SDS011;3902;49.474;8.616;2023-01-29T04:50:22;8.50;;;7.63;;
7719;SDS011;3902;49.474;8.616;2023-01-29T04:53:13;8.83;;;7.97;;
7719;SDS011;3902;49.474;8.616;2023-01-29T04:56:10;9.00;;;8.10;;
7719;SDS011;3902;49.474;8.616;2023-01-29T04:58:48;9.00;;;8.20;;
7719;SDS011;3902;49.474;8.616;2023-01-29T05:01:18;8.57;;;7.77;;
7719;SDS011;3902;49.474;8.616;2023-01-29T05:03:48;8.07;;;7.33;;
7719;SDS011;3902;49.474;8.616;2023-01-29T05:06:15;7.43;;;6.73;;
7719;SDS011;3902;49.474;8.616;2023-01-29T05:08:43;8.00;;;7.20;;
7719;SDS011;3902;49.474;8.616;2023-01-29T05:11:09;7.23;;;6.53;;
7719;SDS011;3902;49.474;8.616;2023-01-29T05:13:35;7.77;;;7.17;;
7719;SDS011;3902;49.474;8.616;2023-01-29T05:16:04;6.97;;;6.37;;
7719;SDS011;3902;49.474;8.616;2023-01-29T05:18:36;7.37;;;6.77;;
7719;SDS011;3902;49.474;8.616;2023-01-29T05:21:03;6.87;;;6.17;;
7719;SDS011;3902;49.474;8.616;2023-01-29T05:23:31;7.57;;;6.87;;
7719;SDS011;3902;49.474;8.616;2023-01-29T05:25:56;7.53;;;6.90;;
7719;SDS011;3902;49.474;8.616;2023-01-29T05:28:22;7.83;;;7.03;;
7719;SDS011;3902;49.474;8.616;2023-01-29T05:30:52;7.63;;;6.90;;
7719;SDS011;3902;49.474;8.616;2023-01-29T05:33:23;6.53;;;5.97;;
7719;SDS011;3902;49.474;8.616;2023-01-29T05:35:53;7.60;;;6.70;;
7719;SDS011;3902;49.474;8.616;2023-01-29T05:38:19;6.73;;;6.13;;
7719;SDS011;3902;49.474;8.616;2023-01-29T05:40:46;7.03;;;6.33;;
7719;SDS011;3902;49.474;8.616;2023-01-29T05:45:51;6.47;;;5.97;;
7719;SDS011;3902;49.474;8.616;2023-01-29T05:48:18;7.17;;;6.57;;
7719;SDS011;3902;49.474;8.616;2023-01-29T05:50:43;6.60;;;6.00;;
7719;SDS011;3902;49.474;8.616;2023-01-29T05:53:09;6.70;;;6.10;;
7719;SDS011;3902;49.474;8.616;2023-01-29T05:55:34;6.97;;;6.37;;
7719;SDS011;3902;49.474;8.616;2023-01-29T05:58:00;6.30;;;5.63;;
7719;SDS011;3902;49.474;8.616;2023-01-29T06:00:26;6.70;;;6.13;;
7719;SDS011;3902;49.474;8.616;2023-01-29T06:02:51;6.90;;;6.17;;
7719;SDS011;3902;49.474;8.616;2023-01-29T06:05:17;6.40;;;5.90;;
7719;SDS011;3902;49.474;8.616;2023-01-29T06:07:42;6.77;;;6.17;;
7719;SDS011;3902;49.474;8.616;2023-01-29T06:10:12;6.50;;;6.00;;
7719;SDS011;3902;49.474;8.616;2023-01-29T06:12:40;6.93;;;6.33;;
7719;SDS011;3902;49.474;8.616;2023-01-29T06:15:07;9.07;;;6.27;;
7719;SDS011;3902;49.474;8.616;2023-01-29T06:17:33;6.50;;;5.90;;
7719;SDS011;3902;49.474;8.616;2023-01-29T06:19:58;10.40;;;6.87;;
7719;SDS011;3902;49.474;8.616;2023-01-29T06:22:24;6.73;;;6.13;;
7719;SDS011;3902;49.474;8.616;2023-01-29T06:24:49;6.63;;;6.07;;
7719;SDS011;3902;49.474;8.616;2023-01-29T06:27:15;7.60;;;6.90;;
7719;SDS011;3902;49.474;8.616;2023-01-29T06:29:40;6.90;;;6.30;;
7719;SDS011;3902;49.474;8.616;2023-01-29T06:32:06;7.00;;;6.40;;
7719;SDS011;3902;49.474;8.616;2023-01-29T06:34:31;7.20;;;6.50;;
7719;SDS011;3902;49.474;8.616;2023-01-29T06:36:57;6.20;;;5.70;;
7719;SDS011;3902;49.474;8.616;2023-01-29T06:39:22;7.53;;;6.83;;
7719;SDS011;3902;49.474;8.616;2023-01-29T06:41:48;7.27;;;6.67;;
7719;SDS011;3902;49.474;8.616;2023-01-29T06:44:13;7.23;;;6.63;;
7719;SDS011;3902;49.474;8.616;2023-01-29T06:46:39;7.60;;;6.90;;
7719;SDS011;3902;49.474;8.616;2023-01-29T06:49:04;6.80;;;6.10;;
7719;SDS011;3902;49.474;8.616;2023-01-29T06:51:30;6.90;;;6.30;;
7719;SDS011;3902;49.474;8.616;2023-01-29T06:53:55;7.40;;;6.80;;
7719;SDS011;3902;49.474;8.616;2023-01-29T06:56:21;6.30;;;5.80;;
7719;SDS011;3902;49.474;8.616;2023-01-29T06:58:47;6.70;;;6.10;;
7719;SDS011;3902;49.474;8.616;2023-01-29T07:01:13;7.17;;;6.50;;
7719;SDS011;3902;49.474;8.616;2023-01-29T07:03:38;7.13;;;6.43;;
7719;SDS011;3902;49.474;8.616;2023-01-29T07:06:05;10.27;;;9.23;;
7719;SDS011;3902;49.474;8.616;2023-01-29T07:08:34;21.90;;;17.90;;
7719;SDS011;3902;49.474;8.616;2023-01-29T07:11:00;33.20;;;25.47;;
7719;SDS011;3902;49.474;8.616;2023-01-29T07:13:27;27.00;;;22.37;;
7719;SDS011;3902;49.474;8.616;2023-01-29T07:15:53;24.93;;;20.70;;
7719;SDS011;3902;49.474;8.616;2023-01-29T07:18:18;19.90;;;17.80;;
7719;SDS011;3902;49.474;8.616;2023-01-29T07:20:44;16.43;;;14.83;;
7719;SDS011;3902;49.474;8.616;2023-01-29T07:23:10;14.17;;;12.73;;
7719;SDS011;3902;49.474;8.616;2023-01-29T07:25:37;13.03;;;11.73;;
7719;SDS011;3902;49.474;8.616;2023-01-29T07:28:03;11.40;;;10.30;;
7719;SDS011;3902;49.474;8.616;2023-01-29T07:30:29;10.23;;;9.10;;
7719;SDS011;3902;49.474;8.616;2023-01-29T07:32:54;9.00;;;8.20;;
7719;SDS011;3902;49.474;8.616;2023-01-29T07:35:24;9.47;;;8.57;;
7719;SDS011;3902;49.474;8.616;2023-01-29T07:37:50;9.40;;;8.50;;
7719;SDS011;3902;49.474;8.616;2023-01-29T07:40:15;8.80;;;8.00;;
7719;SDS011;3902;49.474;8.616;2023-01-29T07:42:41;8.17;;;7.37;;
7719;SDS011;3902;49.474;8.616;2023-01-29T07:45:08;7.57;;;6.97;;
7719;SDS011;3902;49.474;8.616;2023-01-29T07:47:34;8.10;;;7.40;;
7719;SDS011;3902;49.474;8.616;2023-01-29T07:50:00;8.77;;;7.93;;
7719;SDS011;3902;49.474;8.616;2023-01-29T07:52:27;7.47;;;6.80;;
7719;SDS011;3902;49.474;8.616;2023-01-29T07:54:54;7.90;;;7.17;;
7719;SDS011;3902;49.474;8.616;2023-01-29T07:57:20;8.30;;;7.60;;
7719;SDS011;3902;49.474;8.616;2023-01-29T07:59:45;8.27;;;7.47;;
7719;SDS011;3902;49.474;8.616;2023-01-29T08:02:11;7.50;;;6.80;;
7719;SDS011;3902;49.474;8.616;2023-01-29T08:04:37;7.83;;;7.13;;
7719;SDS011;3902;49.474;8.616;2023-01-29T08:07:02;8.17;;;7.30;;
7719;SDS011;3902;49.474;8.616;2023-01-29T08:09:28;7.63;;;6.93;;
7719;SDS011;3902;49.474;8.616;2023-01-29T08:11:54;6.67;;;6.07;;
7719;SDS011;3902;49.474;8.616;2023-01-29T08:14:20;7.90;;;7.20;;
7719;SDS011;3902;49.474;8.616;2023-01-29T08:16:46;6.37;;;5.87;;
7719;SDS011;3902;49.474;8.616;2023-01-29T08:19:11;7.10;;;6.50;;
7719;SDS011;3902;49.474;8.616;2023-01-29T08:21:37;7.90;;;7.20;;
7719;SDS011;3902;49.474;8.616;2023-01-29T08:24:02;7.30;;;6.60;;
7719;SDS011;3902;49.474;8.616;2023-01-29T08:26:28;7.40;;;6.80;;
7719;SDS011;3902;49.474;8.616;2023-01-29T08:28:54;7.73;;;7.03;;
7719;SDS011;3902;49.474;8.616;2023-01-29T08:31:19;8.37;;;7.57;;
7719;SDS011;3902;49.474;8.616;2023-01-29T08:33:45;7.73;;;7.03;;
7719;SDS011;3902;49.474;8.616;2023-01-29T08:36:10;8.10;;;7.30;;
7719;SDS011;3902;49.474;8.616;2023-01-29T08:38:36;6.77;;;6.17;;
7719;SDS011;3902;49.474;8.616;2023-01-29T08:41:02;8.60;;;7.80;;
7719;SDS011;3902;49.474;8.616;2023-01-29T08:43:28;6.67;;;6.00;;
7719;SDS011;3902;49.474;8.616;2023-01-29T08:45:53;8.03;;;7.23;;
7719;SDS011;3902;49.474;8.616;2023-01-29T08:48:19;7.00;;;6.37;;
7719;SDS011;3902;49.474;8.616;2023-01-29T08:50:44;7.20;;;6.50;;
7719;SDS011;3902;49.474;8.616;2023-01-29T08:53:10;7.10;;;6.17;;
7719;SDS011;3902;49.474;8.616;2023-01-29T08:55:36;6.73;;;6.10;;
7719;SDS011;3902;49.474;8.616;2023-01-29T08:58:03;6.63;;;6.03;;
7719;SDS011;3902;49.474;8.616;2023-01-29T09:00:30;7.10;;;6.40;;
7719;SDS011;3902;49.474;8.616;2023-01-29T09:02:56;6.17;;;5.53;;
7719;SDS011;3902;49.474;8.616;2023-01-29T09:05:23;6.17;;;5.67;;
7719;SDS011;3902;49.474;8.616;2023-01-29T09:07:49;6.60;;;6.00;;
7719;SDS011;3902;49.474;8.616;2023-01-29T09:10:15;6.37;;;5.33;;
7719;SDS011;3902;49.474;8.616;2023-01-29T09:12:41;6.50;;;5.07;;
7719;SDS011;3902;49.474;8.616;2023-01-29T09:15:06;6.27;;;5.67;;
7719;SDS011;3902;49.474;8.616;2023-01-29T09:17:32;6.33;;;5.73;;
7719;SDS011;3902;49.474;8.616;2023-01-29T09:19:58;6.57;;;5.93;;
7719;SDS011;3902;49.474;8.616;2023-01-29T09:22:23;6.77;;;6.17;;
7719;SDS011;3902;49.474;8.616;2023-01-29T09:24:49;8.00;;;7.20;;
7719;SDS011;3902;49.474;8.616;2023-01-29T09:27:15;8.13;;;7.17;;
7719;SDS011;3902;49.474;8.616;2023-01-29T09:29:40;8.40;;;7.60;;
7719;SDS011;3902;49.474;8.616;2023-01-29T09:32:06;7.90;;;7.10;;
7719;SDS011;3902;49.474;8.616;2023-01-29T09:34:31;8.17;;;7.37;;
7719;SDS011;3902;49.474;8.616;2023-01-29T09:36:56;9.40;;;7.87;;
7719;SDS011;3902;49.474;8.616;2023-01-29T09:39:22;9.50;;;8.60;;
7719;SDS011;3902;49.474;8.616;2023-01-29T09:41:51;10.90;;;9.80;;
7719;SDS011;3902;49.474;8.616;2023-01-29T09:47:24;10.83;;;9.73;;
7719;SDS011;3902;49.474;8.616;2023-01-29T09:49:52;11.47;;;10.37;;
7719;SDS011;3902;49.474;8.616;2023-01-29T09:52:26;12.20;;;10.83;;
7719;SDS011;3902;49.474;8.616;2023-01-29T09:57:38;11.53;;;10.43;;
7719;SDS011;3902;49.474;8.616;2023-01-29T10:00:17;14.63;;;11.30;;
7719;SDS011;3902;49.474;8.616;2023-01-29T10:02:53;13.10;;;11.50;;
7719;SDS011;3902;49.474;8.616;2023-01-29T10:05:31;12.60;;;11.40;;
7719;SDS011;3902;49.474;8.616;2023-01-29T10:08:31;12.10;;;10.80;;
7719;SDS011;3902;49.474;8.616;2023-01-29T10:17:06;26.73;;;17.80;;
7719;SDS011;3902;49.474;8.616;2023-01-29T10:25:09;17.47;;;15.20;;
7719;SDS011;3902;49.474;8.616;2023-01-29T10:27:38;15.43;;;13.87;;
7719;SDS011;3902;49.474;8.616;2023-01-29T10:30:06;15.97;;;14.30;;
7719;SDS011;3902;49.474;8.616;2023-01-29T10:32:43;16.63;;;13.97;;
7719;SDS011;3902;49.474;8.616;2023-01-29T10:35:15;15.00;;;13.50;;
7719;SDS011;3902;49.474;8.616;2023-01-29T10:37:46;14.67;;;13.20;;
7719;SDS011;3902;49.474;8.616;2023-01-29T10:40:23;14.37;;;12.87;;
7719;SDS011;3902;49.474;8.616;2023-01-29T10:43:11;15.00;;;13.10;;
7719;SDS011;3902;49.474;8.616;2023-01-29T10:45:43;12.90;;;11.40;;
7719;SDS011;3902;49.474;8.616;2023-01-29T10:51:26;12.53;;;11.23;;
7719;SDS011;3902;49.474;8.616;2023-01-29T10:54:27;13.60;;;12.20;;
7719;SDS011;3902;49.474;8.616;2023-01-29T10:57:09;13.47;;;11.97;;
7719;SDS011;3902;49.474;8.616;2023-01-29T10:59:57;15.73;;;12.63;;
7719;SDS011;3902;49.474;8.616;2023-01-29T11:02:25;14.53;;;13.13;;
7719;SDS011;3902;49.474;8.616;2023-01-29T11:04:51;17.00;;;14.13;;
7719;SDS011;3902;49.474;8.616;2023-01-29T11:07:17;14.27;;;12.43;;
7719;SDS011;3902;49.474;8.616;2023-01-29T11:09:49;12.73;;;11.50;;
7719;SDS011;3902;49.474;8.616;2023-01-29T11:12:21;13.40;;;12.03;;
7719;SDS011;3902;49.474;8.616;2023-01-29T11:14:55;13.57;;;12.27;;
7719;SDS011;3902;49.474;8.616;2023-01-29T11:17:26;14.23;;;12.77;;
7719;SDS011;3902;49.474;8.616;2023-01-29T11:19:52;13.97;;;12.50;;
7719;SDS011;3902;49.474;8.616;2023-01-29T11:22:22;13.80;;;12.40;;
7719;SDS011;3902;49.474;8.616;2023-01-29T11:25:09;14.23;;;12.47;;
7719;SDS011;3902;49.474;8.616;2023-01-29T11:27:52;13.87;;;12.47;;
7719;SDS011;3902;49.474;8.616;2023-01-29T11:30:25;13.43;;;12.07;;
7719;SDS011;3902;49.474;8.616;2023-01-29T11:35:24;14.20;;;12.77;;
7719;SDS011;3902;49.474;8.616;2023-01-29T11:37:50;13.40;;;12.10;;
7719;SDS011;3902;49.474;8.616;2023-01-29T11:42:51;13.60;;;12.20;;
7719;SDS011;3902;49.474;8.616;2023-01-29T11:45:27;15.97;;;14.27;;
7719;SDS011;3902;49.474;8.616;2023-01-29T11:47:56;14.47;;;12.97;;
7719;SDS011;3902;49.474;8.616;2023-01-29T11:50:27;15.43;;;13.90;;
7719;SDS011;3902;49.474;8.616;2023-01-29T11:52:54;14.97;;;13.40;;
7719;SDS011;3902;49.474;8.616;2023-01-29T11:55:23;14.07;;;12.67;;
7719;SDS011;3902;49.474;8.616;2023-01-29T11:57:53;15.30;;;13.63;;
7719;SDS011;3902;49.474;8.616;2023-01-29T12:00:38;13.90;;;12.50;;
7719;SDS011;3902;49.474;8.616;2023-01-29T12:03:06;14.07;;;12.43;;
7719;SDS011;3902;49.474;8.616;2023-01-29T12:05:52;12.90;;;11.50;;
7719;SDS011;3902;49.474;8.616;2023-01-29T12:08:27;16.23;;;14.10;;
7719;SDS011;3902;49.474;8.616;2023-01-29T12:11:09;13.33;;;11.93;;
7719;SDS011;3902;49.474;8.616;2023-01-29T12:13:54;12.90;;;11.60;;
7719;SDS011;3902;49.474;8.616;2023-01-29T12:16:29;13.30;;;12.00;;
7719;SDS011;3902;49.474;8.616;2023-01-29T12:21:33;13.23;;;11.93;;
7719;SDS011;3902;49.474;8.616;2023-01-29T12:24:28;13.10;;;11.87;;
7719;SDS011;3902;49.474;8.616;2023-01-29T12:27:01;12.77;;;11.47;;
7719;SDS011;3902;49.474;8.616;2023-01-29T12:35:14;13.63;;;11.93;;
7719;SDS011;3902;49.474;8.616;2023-01-29T12:37:47;11.80;;;10.60;;
7719;SDS011;3902;49.474;8.616;2023-01-29T12:40:26;12.17;;;10.93;;
7719;SDS011;3902;49.474;8.616;2023-01-29T12:42:56;11.70;;;10.47;;
7719;SDS011;3902;49.474;8.616;2023-01-29T12:45:28;13.50;;;11.63;;
7719;SDS011;3902;49.474;8.616;2023-01-29T12:48:00;11.37;;;10.17;;
7719;SDS011;3902;49.474;8.616;2023-01-29T12:50:34;11.73;;;10.53;;
7719;SDS011;3902;49.474;8.616;2023-01-29T12:53:03;13.07;;;11.63;;
7719;SDS011;3902;49.474;8.616;2023-01-29T12:55:44;10.93;;;9.83;;
7719;SDS011;3902;49.474;8.616;2023-01-29T12:58:20;11.33;;;10.23;;
7719;SDS011;3902;49.474;8.616;2023-01-29T13:00:49;11.03;;;9.93;;
7719;SDS011;3902;49.474;8.616;2023-01-29T13:03:20;11.87;;;10.77;;
7719;SDS011;3902;49.474;8.616;2023-01-29T13:14:19;13.50;;;12.10;;
7719;SDS011;3902;49.474;8.616;2023-01-29T13:16:53;11.67;;;10.57;;
7719;SDS011;3902;49.474;8.616;2023-01-29T13:19:34;11.77;;;10.57;;
7719;SDS011;3902;49.474;8.616;2023-01-29T13:22:02;12.40;;;11.20;;
7719;SDS011;3902;49.474;8.616;2023-01-29T13:24:39;13.13;;;11.83;;
7719;SDS011;3902;49.474;8.616;2023-01-29T13:27:05;12.80;;;11.57;;
7719;SDS011;3902;49.474;8.616;2023-01-29T13:29:31;12.93;;;11.60;;
7719;SDS011;3902;49.474;8.616;2023-01-29T13:32:03;12.93;;;11.63;;
7719;SDS011;3902;49.474;8.616;2023-01-29T13:34:36;15.20;;;12.10;;
7719;SDS011;3902;49.474;8.616;2023-01-29T13:37:10;12.50;;;11.20;;
7719;SDS011;3902;49.474;8.616;2023-01-29T13:39:47;15.93;;;13.50;;
7719;SDS011;3902;49.474;8.616;2023-01-29T13:42:19;12.87;;;11.70;;
7719;SDS011;3902;49.474;8.616;2023-01-29T13:45:01;13.43;;;12.13;;
7719;SDS011;3902;49.474;8.616;2023-01-29T13:47:30;12.90;;;11.70;;
7719;SDS011;3902;49.474;8.616;2023-01-29T14:02:45;11.80;;;10.70;;
7719;SDS011;3902;49.474;8.616;2023-01-29T14:05:40;12.53;;;11.33;;
7719;SDS011;3902;49.474;8.616;2023-01-29T14:13:43;11.30;;;10.23;;
7719;SDS011;3902;49.474;8.616;2023-01-29T14:18:36;11.53;;;10.40;;
7719;SDS011;3902;49.474;8.616;2023-01-29T14:21:29;12.03;;;10.50;;
7719;SDS011;3902;49.474;8.616;2023-01-29T14:34:33;11.73;;;10.53;;
7719;SDS011;3902;49.474;8.616;2023-01-29T14:37:03;13.27;;;11.77;;
7719;SDS011;3902;49.474;8.616;2023-01-29T14:39:47;13.33;;;11.93;;
7719;SDS011;3902;49.474;8.616;2023-01-29T14:42:36;11.97;;;10.77;;
7719;SDS011;3902;49.474;8.616;2023-01-29T14:50:58;12.10;;;10.70;;
7719;SDS011;3902;49.474;8.616;2023-01-29T14:53:00;11.67;;;10.47;;
7719;SDS011;3902;49.474;8.616;2023-01-29T14:55:55;12.00;;;9.90;;
7719;SDS011;3902;49.474;8.616;2023-01-29T14:58:33;11.90;;;10.77;;
7719;SDS011;3902;49.474;8.616;2023-01-29T15:01:19;12.33;;;11.17;;
7719;SDS011;3902;49.474;8.616;2023-01-29T15:03:51;12.30;;;11.10;;
7719;SDS011;3902;49.474;8.616;2023-01-29T15:06:25;13.10;;;11.80;;
7719;SDS011;3902;49.474;8.616;2023-01-29T15:09:09;13.07;;;11.77;;
7719;SDS011;3902;49.474;8.616;2023-01-29T15:11:46;12.60;;;11.30;;
7719;SDS011;3902;49.474;8.616;2023-01-29T15:14:34;12.53;;;11.33;;
7719;SDS011;3902;49.474;8.616;2023-01-29T15:19:41;12.90;;;11.60;;
7719;SDS011;3902;49.474;8.616;2023-01-29T15:22:19;21.70;;;16.83;;
7719;SDS011;3902;49.474;8.616;2023-01-29T15:24:46;25.90;;;18.83;;
7719;SDS011;3902;49.474;8.616;2023-01-29T15:27:31;23.77;;;17.53;;
7719;SDS011;3902;49.474;8.616;2023-01-29T15:29:59;18.07;;;14.80;;
7719;SDS011;3902;49.474;8.616;2023-01-29T15:32:27;17.87;;;14.20;;
7719;SDS011;3902;49.474;8.616;2023-01-29T15:34:57;15.20;;;13.27;;
7719;SDS011;3902;49.474;8.616;2023-01-29T15:37:25;14.60;;;12.90;;
7719;SDS011;3902;49.474;8.616;2023-01-29T15:39:55;15.63;;;14.03;;
7719;SDS011;3902;49.474;8.616;2023-01-29T15:42:21;14.27;;;12.77;;
7719;SDS011;3902;49.474;8.616;2023-01-29T15:44:49;16.70;;;12.40;;
7719;SDS011;3902;49.474;8.616;2023-01-29T15:47:18;13.63;;;12.30;;
7719;SDS011;3902;49.474;8.616;2023-01-29T15:49:52;14.10;;;12.70;;
7719;SDS011;3902;49.474;8.616;2023-01-29T15:52:20;13.97;;;12.53;;
7719;SDS011;3902;49.474;8.616;2023-01-29T15:54:51;13.43;;;12.10;;
7719;SDS011;3902;49.474;8.616;2023-01-29T15:57:18;13.03;;;11.73;;
7719;SDS011;3902;49.474;8.616;2023-01-29T15:59:48;13.07;;;11.77;;
7719;SDS011;3902;49.474;8.616;2023-01-29T16:05:19;14.53;;;13.17;;
7719;SDS011;3902;49.474;8.616;2023-01-29T16:07:47;14.10;;;12.70;;
7719;SDS011;3902;49.474;8.616;2023-01-29T16:10:21;14.83;;;13.33;;
7719;SDS011;3902;49.474;8.616;2023-01-29T16:12:50;14.50;;;13.07;;
7719;SDS011;3902;49.474;8.616;2023-01-29T16:15:20;13.93;;;12.43;;
7719;SDS011;3902;49.474;8.616;2023-01-29T16:17:59;14.47;;;12.93;;
7719;SDS011;3902;49.474;8.616;2023-01-29T16:20:32;13.80;;;12.43;;
7719;SDS011;3902;49.474;8.616;2023-01-29T16:23:02;15.77;;;14.03;;
7719;SDS011;3902;49.474;8.616;2023-01-29T16:25:28;15.47;;;13.90;;
7719;SDS011;3902;49.474;8.616;2023-01-29T16:27:55;14.83;;;13.33;;
7719;SDS011;3902;49.474;8.616;2023-01-29T16:30:23;14.70;;;13.30;;
7719;SDS011;3902;49.474;8.616;2023-01-29T16:32:50;14.40;;;12.90;;
7719;SDS011;3902;49.474;8.616;2023-01-29T16:35:16;14.73;;;13.23;;
7719;SDS011;3902;49.474;8.616;2023-01-29T16:37:42;15.53;;;13.37;;
7719;SDS011;3902;49.474;8.616;2023-01-29T16:40:13;15.10;;;13.60;;
7719;SDS011;3902;49.474;8.616;2023-01-29T16:42:48;14.67;;;13.13;;
7719;SDS011;3902;49.474;8.616;2023-01-29T16:45:30;15.93;;;13.43;;
7719;SDS011;3902;49.474;8.616;2023-01-29T16:47:58;15.17;;;13.60;;
7719;SDS011;3902;49.474;8.616;2023-01-29T16:50:33;14.93;;;13.33;;
7719;SDS011;3902;49.474;8.616;2023-01-29T16:55:37;14.23;;;12.77;;
7719;SDS011;3902;49.474;8.616;2023-01-29T16:58:12;14.00;;;12.60;;
7719;SDS011;3902;49.474;8.616;2023-01-29T17:00:53;15.80;;;14.00;;
7719;SDS011;3902;49.474;8.616;2023-01-29T17:03:28;14.70;;;13.20;;
7719;SDS011;3902;49.474;8.616;2023-01-29T17:05:57;14.20;;;12.73;;
7719;SDS011;3902;49.474;8.616;2023-01-29T17:08:24;18.73;;;15.93;;
7719;SDS011;3902;49.474;8.616;2023-01-29T17:10:57;21.23;;;18.60;;
7719;SDS011;3902;49.474;8.616;2023-01-29T17:13:27;20.63;;;18.43;;
7719;SDS011;3902;49.474;8.616;2023-01-29T17:16:00;19.37;;;16.93;;
7719;SDS011;3902;49.474;8.616;2023-01-29T17:18:27;23.43;;;19.17;;
7719;SDS011;3902;49.474;8.616;2023-01-29T17:20:53;20.40;;;17.33;;
7719;SDS011;3902;49.474;8.616;2023-01-29T17:23:19;21.13;;;17.67;;
7719;SDS011;3902;49.474;8.616;2023-01-29T17:25:45;19.13;;;16.13;;
7719;SDS011;3902;49.474;8.616;2023-01-29T17:28:12;18.80;;;16.80;;
7719;SDS011;3902;49.474;8.616;2023-01-29T17:30:39;18.10;;;16.20;;
7719;SDS011;3902;49.474;8.616;2023-01-29T17:33:24;19.30;;;16.97;;
7719;SDS011;3902;49.474;8.616;2023-01-29T17:35:50;18.10;;;16.10;;
7719;SDS011;3902;49.474;8.616;2023-01-29T17:38:16;19.13;;;16.30;;